sensor_id;sensor_type;location;lat;lon;timestamp;pressure;altitude;pressure_sealevel;temperature;humidity
47716;BME280;33476;50.984;3.538;2022-08-04T00:00:10;101361.00;;;25.98;52.75
47716;BME280;33476;50.984;3.538;2022-08-04T00:05:29;101346.47;;;26.00;52.59
47716;BME280;33476;50.984;3.538;2022-08-04T00:10:33;101353.50;;;26.01;52.48
47716;BME280;33476;50.984;3.538;2022-08-04T00:13:01;101348.63;;;25.97;52.49
47716;BME280;33476;50.984;3.538;2022-08-04T00:15:28;101348.47;;;25.98;52.37
47716;BME280;33476;50.984;3.538;2022-08-04T00:18:04;101335.56;;;25.94;52.46
47716;BME280;33476;50.984;3.538;2022-08-04T00:20:33;101335.41;;;25.95;52.57
47716;BME280;33476;50.984;3.538;2022-08-04T00:23:00;101335.41;;;25.95;52.42
47716;BME280;33476;50.984;3.538;2022-08-04T00:25:26;101334.06;;;25.91;52.44
47716;BME280;33476;50.984;3.538;2022-08-04T00:27:53;101336.88;;;25.90;52.60
47716;BME280;33476;50.984;3.538;2022-08-04T00:30:18;101331.53;;;25.90;52.50
47716;BME280;33476;50.984;3.538;2022-08-04T00:32:45;101325.19;;;25.91;52.34
47716;BME280;33476;50.984;3.538;2022-08-04T00:35:15;101319.16;;;25.89;52.56
47716;BME280;33476;50.984;3.538;2022-08-04T00:37:43;101325.19;;;25.91;52.35
47716;BME280;33476;50.984;3.538;2022-08-04T00:40:46;101319.94;;;25.81;52.55
47716;BME280;33476;50.984;3.538;2022-08-04T00:49:27;101321.66;;;25.82;52.43
47716;BME280;33476;50.984;3.538;2022-08-04T00:57:53;101321.31;;;25.85;51.87
47716;BME280;33476;50.984;3.538;2022-08-04T01:00:23;101317.50;;;25.96;51.50
47716;BME280;33476;50.984;3.538;2022-08-04T01:13:15;101307.44;;;25.90;51.35
47716;BME280;33476;50.984;3.538;2022-08-04T01:16:02;101311.13;;;25.89;51.31
47716;BME280;33476;50.984;3.538;2022-08-04T01:24:35;101304.72;;;25.82;51.48
47716;BME280;33476;50.984;3.538;2022-08-04T01:27:19;101301.53;;;25.78;51.62
47716;BME280;33476;50.984;3.538;2022-08-04T01:29:54;101300.38;;;25.81;51.44
47716;BME280;33476;50.984;3.538;2022-08-04T01:32:25;101300.53;;;25.79;51.29
47716;BME280;33476;50.984;3.538;2022-08-04T01:35:03;101308.91;;;25.76;51.45
47716;BME280;33476;50.984;3.538;2022-08-04T01:37:42;101313.25;;;25.77;51.80
47716;BME280;33476;50.984;3.538;2022-08-04T01:40:13;101309.25;;;25.81;51.57
47716;BME280;33476;50.984;3.538;2022-08-04T01:42:40;101302.38;;;25.79;51.49
47716;BME280;33476;50.984;3.538;2022-08-04T01:45:08;101308.56;;;25.79;51.17
47716;BME280;33476;50.984;3.538;2022-08-04T01:47:35;101302.56;;;25.77;51.42
47716;BME280;33476;50.984;3.538;2022-08-04T01:50:05;101300.34;;;25.72;51.35
47716;BME280;33476;50.984;3.538;2022-08-04T01:52:33;101291.47;;;25.72;51.36
47716;BME280;33476;50.984;3.538;2022-08-04T01:55:00;101295.16;;;25.71;51.63
47716;BME280;33476;50.984;3.538;2022-08-04T01:57:28;101283.75;;;25.69;51.33
47716;BME280;33476;50.984;3.538;2022-08-04T01:59:57;101279.88;;;25.63;51.79
47716;BME280;33476;50.984;3.538;2022-08-04T02:02:23;101280.72;;;25.64;51.79
47716;BME280;33476;50.984;3.538;2022-08-04T02:04:48;101285.38;;;25.62;51.74
47716;BME280;33476;50.984;3.538;2022-08-04T02:07:39;101284.34;;;25.55;51.80
47716;BME280;33476;50.984;3.538;2022-08-04T02:10:44;101276.81;;;25.50;51.88
47716;BME280;33476;50.984;3.538;2022-08-04T02:21:24;101250.88;;;25.42;52.01
47716;BME280;33476;50.984;3.538;2022-08-04T02:23:53;101258.34;;;25.39;51.84
47716;BME280;33476;50.984;3.538;2022-08-04T02:26:24;101265.88;;;25.35;52.13
47716;BME280;33476;50.984;3.538;2022-08-04T02:31:32;101271.53;;;25.32;52.01
47716;BME280;33476;50.984;3.538;2022-08-04T02:34:07;101266.03;;;25.34;52.29
47716;BME280;33476;50.984;3.538;2022-08-04T02:36:38;101268.88;;;25.32;52.12
47716;BME280;33476;50.984;3.538;2022-08-04T02:39:07;101267.53;;;25.36;52.04
47716;BME280;33476;50.984;3.538;2022-08-04T02:41:33;101268.72;;;25.34;51.94
47716;BME280;33476;50.984;3.538;2022-08-04T02:44:08;101272.16;;;25.26;52.09
47716;BME280;33476;50.984;3.538;2022-08-04T02:46:35;101277.03;;;25.31;52.23
47716;BME280;33476;50.984;3.538;2022-08-04T02:49:04;101280.19;;;25.26;52.07
47716;BME280;33476;50.984;3.538;2022-08-04T02:51:37;101288.00;;;25.19;52.23
47716;BME280;33476;50.984;3.538;2022-08-04T02:54:05;101281.81;;;25.19;52.45
47716;BME280;33476;50.984;3.538;2022-08-04T02:56:34;101280.59;;;25.13;52.50
47716;BME280;33476;50.984;3.538;2022-08-04T02:59:06;101272.06;;;25.10;52.85
47716;BME280;33476;50.984;3.538;2022-08-04T03:01:32;101268.06;;;25.14;52.50
47716;BME280;33476;50.984;3.538;2022-08-04T03:07:12;101275.50;;;25.02;53.07
47716;BME280;33476;50.984;3.538;2022-08-04T03:13:00;101265.78;;;25.01;53.33
47716;BME280;33476;50.984;3.538;2022-08-04T03:30:06;101273.91;;;24.74;54.21
47716;BME280;33476;50.984;3.538;2022-08-04T03:35:51;101272.34;;;24.63;54.82
47716;BME280;33476;50.984;3.538;2022-08-04T03:41:47;101269.44;;;24.56;54.88
47716;BME280;33476;50.984;3.538;2022-08-04T03:52:38;101265.63;;;24.59;54.44
47716;BME280;33476;50.984;3.538;2022-08-04T04:12:45;101279.00;;;24.31;56.86
47716;BME280;33476;50.984;3.538;2022-08-04T04:15:45;101278.31;;;24.29;56.77
47716;BME280;33476;50.984;3.538;2022-08-04T04:18:20;101276.25;;;24.33;56.84
47716;BME280;33476;50.984;3.538;2022-08-04T04:24:22;101261.06;;;24.24;57.40
47716;BME280;33476;50.984;3.538;2022-08-04T04:27:08;101270.78;;;24.25;57.12
47716;BME280;33476;50.984;3.538;2022-08-04T04:34:56;101281.81;;;24.12;58.24
47716;BME280;33476;50.984;3.538;2022-08-04T04:44:13;101285.09;;;24.06;59.11
47716;BME280;33476;50.984;3.538;2022-08-04T04:49:39;101296.16;;;24.11;59.25
47716;BME280;33476;50.984;3.538;2022-08-04T04:52:12;101293.56;;;24.19;59.55
47716;BME280;33476;50.984;3.538;2022-08-04T04:54:53;101290.50;;;24.14;60.09
47716;BME280;33476;50.984;3.538;2022-08-04T04:57:23;101301.13;;;24.24;59.74
47716;BME280;33476;50.984;3.538;2022-08-04T04:59:57;101295.84;;;24.14;60.48
47716;BME280;33476;50.984;3.538;2022-08-04T05:13:51;101311.44;;;24.19;61.37
47716;BME280;33476;50.984;3.538;2022-08-04T05:16:31;101319.03;;;24.14;61.97
47716;BME280;33476;50.984;3.538;2022-08-04T05:19:06;101322.69;;;24.13;62.01
47716;BME280;33476;50.984;3.538;2022-08-04T05:21:42;101326.03;;;24.15;62.36
47716;BME280;33476;50.984;3.538;2022-08-04T05:24:11;101317.88;;;24.16;62.50
47716;BME280;33476;50.984;3.538;2022-08-04T05:26:43;101321.53;;;24.15;62.83
47716;BME280;33476;50.984;3.538;2022-08-04T05:29:15;101327.13;;;24.22;62.95
47716;BME280;33476;50.984;3.538;2022-08-04T05:31:48;101329.94;;;24.20;62.81
47716;BME280;33476;50.984;3.538;2022-08-04T05:34:21;101339.31;;;24.24;63.19
47716;BME280;33476;50.984;3.538;2022-08-04T05:36:55;101335.81;;;24.24;63.36
47716;BME280;33476;50.984;3.538;2022-08-04T05:39:37;101343.81;;;24.24;63.56
47716;BME280;33476;50.984;3.538;2022-08-04T05:42:08;101342.69;;;24.36;63.18
47716;BME280;33476;50.984;3.538;2022-08-04T05:44:35;101345.03;;;24.39;63.00
47716;BME280;33476;50.984;3.538;2022-08-04T05:47:02;101345.88;;;24.40;63.53
47716;BME280;33476;50.984;3.538;2022-08-04T05:49:28;101339.53;;;24.41;63.36
47716;BME280;33476;50.984;3.538;2022-08-04T05:51:58;101337.75;;;24.41;63.63
47716;BME280;33476;50.984;3.538;2022-08-04T05:54:24;101331.78;;;24.47;63.55
47716;BME280;33476;50.984;3.538;2022-08-04T05:56:53;101341.34;;;24.50;63.53
47716;BME280;33476;50.984;3.538;2022-08-04T05:59:19;101343.38;;;24.56;63.15
47716;BME280;33476;50.984;3.538;2022-08-04T06:01:46;101338.59;;;24.59;63.12
47716;BME280;33476;50.984;3.538;2022-08-04T06:04:12;101333.75;;;24.63;63.13
47716;BME280;33476;50.984;3.538;2022-08-04T06:06:39;101343.00;;;24.69;63.12
47716;BME280;33476;50.984;3.538;2022-08-04T06:09:04;101338.19;;;24.72;63.04
47716;BME280;33476;50.984;3.538;2022-08-04T06:11:30;101353.09;;;24.75;63.48
47716;BME280;33476;50.984;3.538;2022-08-04T06:14:00;101360.56;;;24.71;63.20
47716;BME280;33476;50.984;3.538;2022-08-04T06:16:35;101364.63;;;24.75;62.93
47716;BME280;33476;50.984;3.538;2022-08-04T06:19:04;101364.97;;;24.80;63.30
47716;BME280;33476;50.984;3.538;2022-08-04T06:21:31;101368.88;;;24.86;62.93
47716;BME280;33476;50.984;3.538;2022-08-04T06:23:57;101363.94;;;24.91;62.87
47716;BME280;33476;50.984;3.538;2022-08-04T06:26:24;101360.25;;;24.92;62.64
47716;BME280;33476;50.984;3.538;2022-08-04T06:28:52;101359.09;;;24.94;62.71
47716;BME280;33476;50.984;3.538;2022-08-04T06:31:19;101364.84;;;25.00;63.27
47716;BME280;33476;50.984;3.538;2022-08-04T06:34:01;101370.94;;;24.92;63.34
47716;BME280;33476;50.984;3.538;2022-08-04T06:36:29;101367.28;;;24.93;63.29
47716;BME280;33476;50.984;3.538;2022-08-04T06:38:55;101369.63;;;24.96;63.12
47716;BME280;33476;50.984;3.538;2022-08-04T06:41:22;101373.25;;;25.05;62.92
47716;BME280;33476;50.984;3.538;2022-08-04T06:43:48;101380.66;;;25.11;62.59
47716;BME280;33476;50.984;3.538;2022-08-04T06:46:14;101384.00;;;25.13;62.57
47716;BME280;33476;50.984;3.538;2022-08-04T06:48:41;101381.16;;;25.14;62.38
47716;BME280;33476;50.984;3.538;2022-08-04T06:51:07;101380.72;;;25.19;62.30
47716;BME280;33476;50.984;3.538;2022-08-04T06:53:35;101388.41;;;25.22;62.11
47716;BME280;33476;50.984;3.538;2022-08-04T06:56:00;101384.75;;;25.23;62.12
47716;BME280;33476;50.984;3.538;2022-08-04T06:58:26;101384.47;;;25.26;62.20
47716;BME280;33476;50.984;3.538;2022-08-04T07:00:55;101386.97;;;25.28;62.02
47716;BME280;33476;50.984;3.538;2022-08-04T07:03:26;101391.31;;;25.29;61.71
47716;BME280;33476;50.984;3.538;2022-08-04T07:05:52;101398.19;;;25.31;61.83
47716;BME280;33476;50.984;3.538;2022-08-04T07:08:19;101395.38;;;25.33;61.72
47716;BME280;33476;50.984;3.538;2022-08-04T07:10:45;101400.78;;;25.41;61.46
47716;BME280;33476;50.984;3.538;2022-08-04T07:13:11;101397.78;;;25.44;61.35
47716;BME280;33476;50.984;3.538;2022-08-04T07:15:40;101404.66;;;25.46;61.62
47716;BME280;33476;50.984;3.538;2022-08-04T07:18:08;101415.56;;;25.53;60.86
47716;BME280;33476;50.984;3.538;2022-08-04T07:20:33;101407.22;;;25.56;61.19
47716;BME280;33476;50.984;3.538;2022-08-04T07:23:00;101398.91;;;25.59;61.06
47716;BME280;33476;50.984;3.538;2022-08-04T07:25:26;101407.94;;;25.58;61.19
47716;BME280;33476;50.984;3.538;2022-08-04T07:27:52;101417.31;;;25.62;60.97
47716;BME280;33476;50.984;3.538;2022-08-04T07:30:17;101418.16;;;25.63;60.71
47716;BME280;33476;50.984;3.538;2022-08-04T07:32:43;101416.47;;;25.62;61.03
47716;BME280;33476;50.984;3.538;2022-08-04T07:35:11;101418.63;;;25.58;60.91
47716;BME280;33476;50.984;3.538;2022-08-04T07:37:37;101421.59;;;25.55;61.20
47716;BME280;33476;50.984;3.538;2022-08-04T07:40:03;101430.94;;;25.51;60.93
47716;BME280;33476;50.984;3.538;2022-08-04T07:42:29;101428.09;;;25.53;61.12
47716;BME280;33476;50.984;3.538;2022-08-04T07:44:55;101431.78;;;25.52;60.99
47716;BME280;33476;50.984;3.538;2022-08-04T07:47:20;101430.56;;;25.46;61.34
47716;BME280;33476;50.984;3.538;2022-08-04T07:49:46;101436.22;;;25.43;61.48
47716;BME280;33476;50.984;3.538;2022-08-04T07:52:12;101436.69;;;25.38;61.64
47716;BME280;33476;50.984;3.538;2022-08-04T07:54:38;101443.72;;;25.39;61.58
47716;BME280;33476;50.984;3.538;2022-08-04T07:57:03;101442.25;;;25.45;61.52
47716;BME280;33476;50.984;3.538;2022-08-04T07:59:28;101435.56;;;25.41;61.51
47716;BME280;33476;50.984;3.538;2022-08-04T08:01:57;101444.53;;;25.40;61.61
47716;BME280;33476;50.984;3.538;2022-08-04T08:04:23;101449.59;;;25.43;61.54
47716;BME280;33476;50.984;3.538;2022-08-04T08:06:49;101450.06;;;25.38;61.66
47716;BME280;33476;50.984;3.538;2022-08-04T08:09:17;101457.91;;;25.40;61.18
47716;BME280;33476;50.984;3.538;2022-08-04T08:11:45;101447.03;;;25.33;61.28
47716;BME280;33476;50.984;3.538;2022-08-04T08:14:13;101443.03;;;25.37;61.19
47716;BME280;33476;50.984;3.538;2022-08-04T08:16:39;101440.19;;;25.39;61.20
47716;BME280;33476;50.984;3.538;2022-08-04T08:19:05;101444.09;;;25.44;61.31
47716;BME280;33476;50.984;3.538;2022-08-04T08:21:31;101450.28;;;25.45;61.38
47716;BME280;33476;50.984;3.538;2022-08-04T08:23:57;101447.75;;;25.43;61.20
47716;BME280;33476;50.984;3.538;2022-08-04T08:26:23;101441.41;;;25.44;61.21
47716;BME280;33476;50.984;3.538;2022-08-04T08:28:49;101456.13;;;25.40;61.37
47716;BME280;33476;50.984;3.538;2022-08-04T08:31:14;101449.44;;;25.44;60.97
47716;BME280;33476;50.984;3.538;2022-08-04T08:33:40;101442.25;;;25.45;61.16
47716;BME280;33476;50.984;3.538;2022-08-04T08:36:40;101446.53;;;25.38;61.49
47716;BME280;33476;50.984;3.538;2022-08-04T08:39:13;101450.97;;;25.47;61.19
47716;BME280;33476;50.984;3.538;2022-08-04T08:47:03;101445.53;;;25.39;61.35
47716;BME280;33476;50.984;3.538;2022-08-04T08:49:57;101452.13;;;25.44;61.16
47716;BME280;33476;50.984;3.538;2022-08-04T08:58:27;101430.78;;;25.53;60.76
47716;BME280;33476;50.984;3.538;2022-08-04T09:01:09;101421.09;;;25.52;60.88
47716;BME280;33476;50.984;3.538;2022-08-04T09:06:27;101432.53;;;25.62;60.89
47716;BME280;33476;50.984;3.538;2022-08-04T09:09:14;101429.38;;;25.66;60.92
47716;BME280;33476;50.984;3.538;2022-08-04T09:11:54;101429.97;;;25.78;60.41
47716;BME280;33476;50.984;3.538;2022-08-04T09:14:27;101431.19;;;25.84;60.90
47716;BME280;33476;50.984;3.538;2022-08-04T09:17:03;101434.34;;;25.79;61.22
47716;BME280;33476;50.984;3.538;2022-08-04T09:19:43;101439.00;;;25.77;61.00
47716;BME280;33476;50.984;3.538;2022-08-04T09:25:12;101446.66;;;25.98;60.67
47716;BME280;33476;50.984;3.538;2022-08-04T09:27:51;101434.41;;;26.21;59.89
47716;BME280;33476;50.984;3.538;2022-08-04T09:30:19;101429.97;;;26.38;59.44
47716;BME280;33476;50.984;3.538;2022-08-04T09:38:28;101415.19;;;26.76;57.86
47716;BME280;33476;50.984;3.538;2022-08-04T09:46:16;101428.31;;;27.44;54.98
47716;BME280;33476;50.984;3.538;2022-08-04T09:48:55;101430.34;;;27.51;54.43
47716;BME280;33476;50.984;3.538;2022-08-04T09:54:08;101429.81;;;27.63;54.41
47716;BME280;33476;50.984;3.538;2022-08-04T09:59:30;101433.28;;;27.96;53.89
47716;BME280;33476;50.984;3.538;2022-08-04T10:02:05;101434.25;;;28.12;52.39
47716;BME280;33476;50.984;3.538;2022-08-04T10:04:34;101432.03;;;28.23;51.82
47716;BME280;33476;50.984;3.538;2022-08-04T10:07:23;101437.06;;;28.35;51.83
47716;BME280;33476;50.984;3.538;2022-08-04T10:10:16;101435.50;;;28.48;50.27
47716;BME280;33476;50.984;3.538;2022-08-04T10:21:02;101431.00;;;28.72;48.62
47716;BME280;33476;50.984;3.538;2022-08-04T10:29:20;101430.56;;;29.14;47.89
47716;BME280;33476;50.984;3.538;2022-08-04T10:32:20;101428.63;;;29.23;47.80
47716;BME280;33476;50.984;3.538;2022-08-04T10:35:01;101430.88;;;29.34;46.24
47716;BME280;33476;50.984;3.538;2022-08-04T10:37:41;101432.28;;;29.30;46.48
47716;BME280;33476;50.984;3.538;2022-08-04T10:40:11;101438.06;;;29.42;46.85
47716;BME280;33476;50.984;3.538;2022-08-04T10:43:07;101434.50;;;29.49;46.62
47716;BME280;33476;50.984;3.538;2022-08-04T10:45:52;101426.53;;;29.56;46.19
47716;BME280;33476;50.984;3.538;2022-08-04T10:51:18;101427.84;;;29.75;46.32
47716;BME280;33476;50.984;3.538;2022-08-04T10:53:56;101432.41;;;29.89;45.26
47716;BME280;33476;50.984;3.538;2022-08-04T10:56:35;101434.63;;;30.00;45.37
47716;BME280;33476;50.984;3.538;2022-08-04T10:59:10;101429.69;;;30.04;44.56
47716;BME280;33476;50.984;3.538;2022-08-04T11:01:44;101424.03;;;29.99;44.50
47716;BME280;33476;50.984;3.538;2022-08-04T11:07:00;101433.25;;;30.19;44.25
47716;BME280;33476;50.984;3.538;2022-08-04T11:09:27;101430.75;;;30.17;44.33
47716;BME280;33476;50.984;3.538;2022-08-04T11:12:01;101433.72;;;30.23;44.06
47716;BME280;33476;50.984;3.538;2022-08-04T11:14:43;101433.91;;;30.21;43.67
47716;BME280;33476;50.984;3.538;2022-08-04T11:17:19;101427.13;;;30.25;43.90
47716;BME280;33476;50.984;3.538;2022-08-04T11:19:51;101419.94;;;30.32;43.75
47716;BME280;33476;50.984;3.538;2022-08-04T11:25:18;101427.47;;;30.37;43.45
47716;BME280;33476;50.984;3.538;2022-08-04T11:30:39;101428.97;;;30.61;42.97
47716;BME280;33476;50.984;3.538;2022-08-04T11:33:14;101433.75;;;30.73;42.71
47716;BME280;33476;50.984;3.538;2022-08-04T11:38:49;101443.81;;;30.86;41.69
47716;BME280;33476;50.984;3.538;2022-08-04T11:41:22;101438.69;;;30.91;41.43
47716;BME280;33476;50.984;3.538;2022-08-04T11:43:53;101443.31;;;30.97;41.45
47716;BME280;33476;50.984;3.538;2022-08-04T11:46:39;101440.69;;;31.04;41.58
47716;BME280;33476;50.984;3.538;2022-08-04T11:49:25;101439.97;;;31.17;40.94
47716;BME280;33476;50.984;3.538;2022-08-04T11:51:55;101447.53;;;31.21;40.69
47716;BME280;33476;50.984;3.538;2022-08-04T11:54:22;101443.03;;;31.28;40.46
47716;BME280;33476;50.984;3.538;2022-08-04T11:56:48;101440.50;;;31.27;39.88
47716;BME280;33476;50.984;3.538;2022-08-04T11:59:13;101445.56;;;31.15;39.69
47716;BME280;33476;50.984;3.538;2022-08-04T12:04:51;101441.13;;;31.08;40.53
47716;BME280;33476;50.984;3.538;2022-08-04T12:07:31;101438.84;;;31.04;40.64
47716;BME280;33476;50.984;3.538;2022-08-04T12:16:00;101440.16;;;31.15;40.65
47716;BME280;33476;50.984;3.538;2022-08-04T12:18:41;101442.88;;;31.15;40.63
47716;BME280;33476;50.984;3.538;2022-08-04T12:21:43;101438.31;;;31.16;40.15
47716;BME280;33476;50.984;3.538;2022-08-04T12:24:19;101438.94;;;31.18;40.35
47716;BME280;33476;50.984;3.538;2022-08-04T12:26:51;101443.13;;;31.20;40.06
47716;BME280;33476;50.984;3.538;2022-08-04T12:29:22;101436.53;;;31.23;39.95
47716;BME280;33476;50.984;3.538;2022-08-04T12:31:52;101440.28;;;31.22;39.59
47716;BME280;33476;50.984;3.538;2022-08-04T12:37:58;101444.53;;;31.16;39.21
47716;BME280;33476;50.984;3.538;2022-08-04T12:40:30;101445.25;;;31.03;38.94
47716;BME280;33476;50.984;3.538;2022-08-04T12:43:07;101445.91;;;31.06;38.92
47716;BME280;33476;50.984;3.538;2022-08-04T12:45:34;101453.47;;;31.17;38.86
47716;BME280;33476;50.984;3.538;2022-08-04T12:48:03;101447.22;;;31.16;37.91
47716;BME280;33476;50.984;3.538;2022-08-04T12:50:30;101447.03;;;31.18;37.59
47716;BME280;33476;50.984;3.538;2022-08-04T12:52:56;101438.47;;;31.29;37.98
47716;BME280;33476;50.984;3.538;2022-08-04T12:55:29;101437.28;;;31.38;38.01
47716;BME280;33476;50.984;3.538;2022-08-04T12:57:56;101441.72;;;31.46;37.68
47716;BME280;33476;50.984;3.538;2022-08-04T13:00:24;101437.22;;;31.53;37.68
47716;BME280;33476;50.984;3.538;2022-08-04T13:02:51;101431.59;;;31.54;37.61
47716;BME280;33476;50.984;3.538;2022-08-04T13:05:18;101430.91;;;31.46;37.46
47716;BME280;33476;50.984;3.538;2022-08-04T13:07:47;101432.03;;;31.30;37.54
47716;BME280;33476;50.984;3.538;2022-08-04T13:10:15;101427.06;;;31.34;38.02
47716;BME280;33476;50.984;3.538;2022-08-04T13:12:43;101427.97;;;31.41;38.04
47716;BME280;33476;50.984;3.538;2022-08-04T13:15:21;101429.41;;;31.43;38.48
47716;BME280;33476;50.984;3.538;2022-08-04T13:17:51;101432.47;;;31.34;39.14
47716;BME280;33476;50.984;3.538;2022-08-04T13:20:43;101427.41;;;31.24;39.66
47716;BME280;33476;50.984;3.538;2022-08-04T13:23:11;101434.94;;;31.28;39.79
47716;BME280;33476;50.984;3.538;2022-08-04T13:25:46;101421.25;;;31.30;40.05
47716;BME280;33476;50.984;3.538;2022-08-04T13:28:21;101428.22;;;31.46;40.34
47716;BME280;33476;50.984;3.538;2022-08-04T13:30:54;101425.78;;;31.57;39.75
47716;BME280;33476;50.984;3.538;2022-08-04T13:33:22;101421.53;;;31.70;39.70
47716;BME280;33476;50.984;3.538;2022-08-04T13:35:55;101424.88;;;31.72;39.51
47716;BME280;33476;50.984;3.538;2022-08-04T13:38:23;101432.00;;;31.79;39.76
47716;BME280;33476;50.984;3.538;2022-08-04T13:40:49;101425.41;;;31.89;39.76
47716;BME280;33476;50.984;3.538;2022-08-04T13:43:39;101432.69;;;31.88;39.24
47716;BME280;33476;50.984;3.538;2022-08-04T13:46:05;101433.13;;;31.92;39.08
47716;BME280;33476;50.984;3.538;2022-08-04T13:48:36;101437.84;;;31.83;39.41
47716;BME280;33476;50.984;3.538;2022-08-04T13:51:04;101436.38;;;31.80;39.56
47716;BME280;33476;50.984;3.538;2022-08-04T13:53:31;101439.00;;;31.74;39.46
47716;BME280;33476;50.984;3.538;2022-08-04T13:55:58;101435.56;;;31.58;39.67
47716;BME280;33476;50.984;3.538;2022-08-04T13:58:27;101432.59;;;31.47;39.68
47716;BME280;33476;50.984;3.538;2022-08-04T14:03:38;101443.41;;;31.25;40.36
47716;BME280;33476;50.984;3.538;2022-08-04T14:06:24;101430.84;;;31.18;40.83
47716;BME280;33476;50.984;3.538;2022-08-04T14:11:42;101431.78;;;31.03;40.98
47716;BME280;33476;50.984;3.538;2022-08-04T14:16:54;101435.88;;;30.99;41.06
47716;BME280;33476;50.984;3.538;2022-08-04T14:19:19;101436.16;;;31.11;40.86
47716;BME280;33476;50.984;3.538;2022-08-04T14:21:45;101432.50;;;31.19;41.18
47716;BME280;33476;50.984;3.538;2022-08-04T14:24:10;101426.84;;;31.28;40.69
47716;BME280;33476;50.984;3.538;2022-08-04T14:26:35;101424.38;;;31.34;40.62
47716;BME280;33476;50.984;3.538;2022-08-04T14:29:08;101421.88;;;31.32;40.40
47716;BME280;33476;50.984;3.538;2022-08-04T14:31:34;101426.22;;;31.33;40.06
47716;BME280;33476;50.984;3.538;2022-08-04T14:33:59;101421.44;;;31.28;40.53
47716;BME280;33476;50.984;3.538;2022-08-04T14:36:25;101424.72;;;31.24;40.10
47716;BME280;33476;50.984;3.538;2022-08-04T14:41:24;101419.34;;;31.09;40.06
47716;BME280;33476;50.984;3.538;2022-08-04T14:43:55;101423.84;;;31.02;40.42
47716;BME280;33476;50.984;3.538;2022-08-04T14:46:23;101420.50;;;31.00;40.57
47716;BME280;33476;50.984;3.538;2022-08-04T14:51:25;101419.41;;;30.94;40.74
47716;BME280;33476;50.984;3.538;2022-08-04T14:53:50;101418.66;;;31.00;40.83
47716;BME280;33476;50.984;3.538;2022-08-04T14:56:16;101424.94;;;31.08;40.28
47716;BME280;33476;50.984;3.538;2022-08-04T14:58:41;101430.53;;;31.06;40.56
47716;BME280;33476;50.984;3.538;2022-08-04T15:01:09;101424.69;;;31.02;40.21
47716;BME280;33476;50.984;3.538;2022-08-04T15:03:39;101423.41;;;30.98;40.27
47716;BME280;33476;50.984;3.538;2022-08-04T15:06:06;101422.78;;;30.96;40.19
47716;BME280;33476;50.984;3.538;2022-08-04T15:08:31;101426.63;;;30.87;40.32
47716;BME280;33476;50.984;3.538;2022-08-04T15:11:01;101431.13;;;30.80;40.27
47716;BME280;33476;50.984;3.538;2022-08-04T15:13:27;101430.00;;;30.74;40.19
47716;BME280;33476;50.984;3.538;2022-08-04T15:15:53;101432.16;;;30.64;40.38
47716;BME280;33476;50.984;3.538;2022-08-04T15:18:19;101426.13;;;30.62;40.42
47716;BME280;33476;50.984;3.538;2022-08-04T15:20:45;101426.97;;;30.63;40.30
47716;BME280;33476;50.984;3.538;2022-08-04T15:23:11;101434.84;;;30.64;40.53
47716;BME280;33476;50.984;3.538;2022-08-04T15:25:39;101438.94;;;30.60;40.08
47716;BME280;33476;50.984;3.538;2022-08-04T15:28:10;101441.19;;;30.57;40.21
47716;BME280;33476;50.984;3.538;2022-08-04T15:30:38;101439.81;;;30.46;40.08
47716;BME280;33476;50.984;3.538;2022-08-04T15:33:04;101445.69;;;30.35;40.11
47716;BME280;33476;50.984;3.538;2022-08-04T15:35:32;101455.28;;;30.23;39.81
47716;BME280;33476;50.984;3.538;2022-08-04T15:40:37;101450.97;;;29.99;40.43
47716;BME280;33476;50.984;3.538;2022-08-04T15:43:06;101448.19;;;29.92;40.70
47716;BME280;33476;50.984;3.538;2022-08-04T15:45:56;101451.16;;;29.82;41.07
47716;BME280;33476;50.984;3.538;2022-08-04T15:48:27;101456.84;;;29.87;41.29
47716;BME280;33476;50.984;3.538;2022-08-04T15:56:42;101445.56;;;29.69;41.50
47716;BME280;33476;50.984;3.538;2022-08-04T15:59:08;101452.53;;;29.63;41.10
47716;BME280;33476;50.984;3.538;2022-08-04T16:01:33;101461.84;;;29.53;41.35
47716;BME280;33476;50.984;3.538;2022-08-04T16:03:58;101461.84;;;29.53;41.39
47716;BME280;33476;50.984;3.538;2022-08-04T16:16:47;101462.28;;;29.42;41.06
47716;BME280;33476;50.984;3.538;2022-08-04T16:19:44;101466.09;;;29.47;40.93
47716;BME280;33476;50.984;3.538;2022-08-04T16:22:31;101463.28;;;29.41;40.99
47716;BME280;33476;50.984;3.538;2022-08-04T16:24:58;101469.69;;;29.40;40.38
47716;BME280;33476;50.984;3.538;2022-08-04T16:27:41;101457.75;;;29.19;40.97
47716;BME280;33476;50.984;3.538;2022-08-04T16:30:09;101456.56;;;29.22;40.99
47716;BME280;33476;50.984;3.538;2022-08-04T16:32:39;101459.13;;;29.15;41.45
47716;BME280;33476;50.984;3.538;2022-08-04T16:35:18;101465.41;;;29.07;41.36
47716;BME280;33476;50.984;3.538;2022-08-04T16:37:44;101465.16;;;29.17;41.28
47716;BME280;33476;50.984;3.538;2022-08-04T16:40:39;101469.25;;;29.13;41.23
47716;BME280;33476;50.984;3.538;2022-08-04T16:43:16;101462.66;;;29.16;41.42
47716;BME280;33476;50.984;3.538;2022-08-04T16:46:01;101469.41;;;29.12;41.76
47716;BME280;33476;50.984;3.538;2022-08-04T16:48:34;101469.41;;;29.12;41.27
47716;BME280;33476;50.984;3.538;2022-08-04T16:51:07;101474.31;;;29.08;41.67
47716;BME280;33476;50.984;3.538;2022-08-04T16:53:41;101472.00;;;29.05;41.67
47716;BME280;33476;50.984;3.538;2022-08-04T16:56:13;101471.72;;;28.92;41.64
47716;BME280;33476;50.984;3.538;2022-08-04T16:58:39;101476.94;;;28.85;42.05
47716;BME280;33476;50.984;3.538;2022-08-04T17:01:10;101473.28;;;28.78;42.14
47716;BME280;33476;50.984;3.538;2022-08-04T17:03:39;101486.44;;;28.73;41.90
47716;BME280;33476;50.984;3.538;2022-08-04T17:08:35;101482.34;;;28.77;41.86